Data for 11/14/2010

Time Sea-Level Adjusted Pressure Absolute Pressure Temperature Relative Humidity Dew Point   
(mb) (inHg) (mb) (inHg) (C) (F) (%) (C) (F)
00:05 1020 30.12 849 25.07 0.9 33.6 66 -4.8 23.3
00:10 1020 30.12 849 25.07 1 33.8 67 -4.4 24
00:15 1020 30.12 849 25.07 0.9 33.7 68 -4.4 24.1
00:20 1020 30.12 849 25.07 0.9 33.6 69 -4.1 24.6
00:25 1020 30.12 849 25.07 0.7 33.3 71 -4 24.8
00:30 1020 30.12 849 25.07 0.6 33.1 71 -4.2 24.5
00:35 1020 30.12 849 25.07 0.3 32.6 74 -3.7 25.3
00:40 1020 30.12 849 25.07 0.2 32.4 75 -3.8 25.2
00:45 1020 30.12 849 25.07 0.1 32.2 75 -3.9 25
00:50 1019 30.09 849 25.07 0.1 32.2 75 -3.8 25.1
00:55 1019 30.09 849 25.07 0 32.1 75 -3.8 25.2
01:00 1019 30.09 849 25.07 0.1 32.3 75 -3.7 25.3
01:05 1019 30.09 849 25.07 0.2 32.3 75 -3.7 25.3
01:10 1019 30.09 849 25.07 0.3 32.5 75 -3.7 25.4
01:15 1019 30.09 848 25.04 0.2 32.4 75 -3.7 25.3
01:20 1019 30.09 849 25.07 0.3 32.5 74 -3.8 25.1
01:25 1019 30.09 849 25.07 0.6 33.1 71 -4.1 24.6
01:30 1019 30.09 849 25.07 0.8 33.5 71 -4 24.9
01:35 1019 30.09 849 25.07 0.8 33.5 71 -3.9 25
01:40 1019 30.09 849 25.07 0.8 33.4 73 -3.6 25.6
01:45 1020 30.12 849 25.07 0.7 33.2 72 -3.8 25.2
01:50 1020 30.12 849 25.07 0.7 33.3 72 -3.8 25.1
01:55 1020 30.12 849 25.07 0.8 33.5 71 -3.9 25
02:00 1020 30.12 849 25.07 0.9 33.6 69 -4.2 24.4
02:05 1019 30.09 849 25.07 1 33.8 70 -3.8 25.1
02:10 1019 30.09 849 25.07 1 33.9 69 -3.9 25
02:15 1019 30.09 849 25.07 1 33.9 69 -4 24.8
02:20 1019 30.09 849 25.07 0.9 33.7 72 -3.6 25.6
02:25 1019 30.09 849 25.07 0.8 33.4 72 -3.8 25.2
02:30 1019 30.09 849 25.07 0.8 33.4 74 -3.3 26
02:35 1019 30.09 849 25.07 0.4 32.7 75 -3.6 25.6
02:40 1019 30.09 849 25.07 0.4 32.7 74 -3.7 25.4
02:45 1019 30.09 849 25.07 0.4 32.6 75 -3.5 25.6
02:50 1019 30.09 848 25.04 0.4 32.8 75 -3.5 25.7
02:55 1019 30.09 848 25.04 0.4 32.7 73 -3.9 25
03:00 1019 30.09 848 25.04 0.4 32.7 73 -3.8 25.1
03:05 1019 30.09 848 25.04 0.4 32.8 75 -3.4 25.8
03:10 1019 30.09 848 25.04 0.5 33 74 -3.6 25.5
03:15 1019 30.09 848 25.04 0.7 33.2 73 -3.5 25.6
03:20 1019 30.09 848 25.04 0.7 33.3 73 -3.6 25.5
03:25 1019 30.09 848 25.04 0.8 33.4 72 -3.7 25.3
03:30 1019 30.09 848 25.04 0.8 33.5 71 -3.8 25.2
03:35 1019 30.09 848 25.04 1 33.8 71 -3.7 25.4
03:40 1019 30.09 848 25.04 1.1 33.9 71 -3.7 25.4
03:45 1019 30.09 848 25.04 1.1 34 70 -3.7 25.4
03:50 1019 30.09 848 25.04 1.2 34.1 71 -3.6 25.6
03:55 1019 30.09 848 25.04 1.1 34 71 -3.6 25.6
04:00 1019 30.09 848 25.04 1 33.8 72 -3.5 25.7
04:05 1019 30.09 848 25.04 1 33.8 72 -3.5 25.7
04:10 1019 30.09 848 25.04 1 33.8 73 -3.4 25.9
04:15 1019 30.09 848 25.04 1 33.7 73 -3.4 25.8
04:20 1019 30.09 848 25.04 0.9 33.7 73 -3.4 25.9
04:25 1019 30.09 848 25.04 0.9 33.7 73 -3.4 25.9
04:30 1019 30.09 848 25.04 0.9 33.6 73 -3.4 25.9
04:35 1019 30.09 848 25.04 0.9 33.6 73 -3.4 25.8
04:40 1019 30.09 848 25.04 1 33.8 72 -3.4 25.8
04:45 1019 30.09 848 25.04 1 33.8 72 -3.4 25.8
04:50 1019 30.09 848 25.04 1 33.7 73 -3.4 25.8
04:55 1019 30.09 848 25.04 1 33.7 73 -3.3 26.1
05:00 1019 30.09 848 25.04 1 33.7 74 -3.2 26.2
05:05 1019 30.09 848 25.04 0.9 33.6 75 -3.1 26.4
05:10 1019 30.09 848 25.04 1 33.8 74 -3.1 26.5
05:15 1019 30.09 848 25.04 1 33.9 74 -3.1 26.5
05:20 1019 30.09 848 25.04 0.9 33.7 74 -3.1 26.4
05:25 1019 30.09 848 25.04 0.9 33.6 75 -3.1 26.5
05:30 1019 30.09 848 25.04 0.9 33.5 75 -3.1 26.5
05:35 1019 30.09 848 25.04 0.8 33.5 76 -3 26.6
05:40 1019 30.09 848 25.04 0.8 33.4 76 -2.9 26.7
05:45 1019 30.09 848 25.04 0.6 33.1 78 -2.9 26.8
05:50 1019 30.09 848 25.04 0.4 32.8 79 -2.8 26.9
05:55 1019 30.09 848 25.04 0.5 32.9 77 -3.2 26.3
06:00 1019 30.09 848 25.04 0.6 33 77 -3 26.7
06:05 1019 30.09 848 25.04 0.6 33.1 78 -2.9 26.8
06:10 1019 30.09 848 25.04 0.6 33.1 78 -2.8 27
06:15 1019 30.09 848 25.04 0.6 33 78 -2.9 26.9
06:20 1019 30.09 848 25.04 0.6 33.1 78 -2.9 26.9
06:25 1019 30.09 848 25.04 0.6 33 79 -2.7 27.1
06:30 1019 30.09 848 25.04 0.5 33 79 -2.7 27.2
06:35 1018 30.06 848 25.04 0.4 32.8 80 -2.7 27.2
06:40 1018 30.06 848 25.04 0.3 32.6 81 -2.5 27.5
06:45 1019 30.09 848 25.04 0.3 32.6 82 -2.4 27.6
06:50 1019 30.09 848 25.04 0.4 32.7 82 -2.3 27.8
06:55 1019 30.09 848 25.04 0.5 32.9 83 -2.1 28.3
07:00 1019 30.09 848 25.04 0.4 32.8 84 -2 28.5
07:05 1018 30.06 848 25.04 0.4 32.7 84 -1.9 28.5
07:10 1018 30.06 848 25.04 0.3 32.5 86 -1.8 28.7
07:15 1018 30.06 848 25.04 0.2 32.3 87 -1.8 28.8
07:20 1018 30.06 848 25.04 0.2 32.3 87 -1.8 28.8
07:25 1018 30.06 847 25.01 0.2 32.4 87 -1.7 29
07:30 1018 30.06 847 25.01 0.2 32.4 86 -1.8 28.8
07:35 1018 30.06 847 25.01 0.1 32.2 86 -1.9 28.6
07:40 1018 30.06 847 25.01 -0.1 31.9 88 -1.8 28.7
07:45 1018 30.06 847 25.01 -0.3 31.5 89 -1.9 28.7
07:50 1018 30.06 847 25.01 -0.3 31.5 89 -1.8 28.7
07:55 1018 30.06 847 25.01 -0 32 88 -1.7 28.9
08:00 1018 30.06 847 25.01 0.1 32.2 87 -1.8 28.8
08:05 1018 30.06 847 25.01 0.1 32.1 87 -1.8 28.8
08:10 1018 30.06 847 25.01 0 32.1 88 -1.7 29
08:15 1018 30.06 847 25.01 0.1 32.1 89 -1.6 29.2
08:20 1018 30.06 847 25.01 -0 31.9 89 -1.6 29.1
08:25 1018 30.06 847 25.01 0 32 90 -1.4 29.4
08:30 1017 30.03 847 25.01 0.1 32.3 89 -1.4 29.4
08:35 1017 30.03 847 25.01 0.3 32.5 89 -1.3 29.6
08:40 1017 30.03 846 24.98 0.4 32.7 89 -1.3 29.7
08:45 1017 30.03 846 24.98 0.4 32.7 89 -1.2 29.8
08:50 1017 30.03 846 24.98 0.3 32.6 89 -1.2 29.8
08:55 1017 30.03 846 24.98 0.3 32.6 90 -1.1 29.9
09:00 1017 30.03 846 24.98 0.4 32.6 89 -1.2 29.9
09:05 1017 30.03 846 24.98 0.4 32.7 89 -1.1 30
09:10 1017 30.03 846 24.98 0.5 33 89 -1.1 30.1
09:15 1017 30.03 846 24.98 0.6 33.1 89 -1 30.3
09:20 1017 30.03 846 24.98 0.6 33.1 90 -0.9 30.4
09:25 1017 30.03 846 24.98 0.5 32.9 90 -0.9 30.3
09:30 1017 30.03 846 24.98 0.5 32.8 91 -0.9 30.4
09:35 1017 30.03 846 24.98 0.5 32.9 90 -0.9 30.3
09:40 1017 30.03 846 24.98 0.4 32.7 90 -1 30.2
09:45 1016 30 846 24.98 0.2 32.3 92 -1 30.2
09:50 1016 30 846 24.98 0.4 32.6 91 -0.9 30.3
09:55 1016 30 845 24.95 0.5 33 90 -0.9 30.4
10:00 1016 30 845 24.95 0.7 33.2 89 -0.9 30.4
10:05 1016 30 845 24.95 0.7 33.2 90 -0.8 30.5
10:10 1016 30 845 24.95 0.6 33 89 -1 30.1
10:15 1016 30 845 24.95 0.7 33.2 88 -1 30.1
10:20 1016 30 845 24.95 0.7 33.3 88 -1.1 30.1
10:25 1016 30 845 24.95 1 33.7 86 -1.1 30.1
10:30 1016 30 845 24.95 1.1 34 86 -1 30.3
10:35 1016 30 845 24.95 1.2 34.1 87 -0.8 30.6
10:40 1016 30 845 24.95 1 33.8 88 -0.7 30.7
10:45 1016 30 845 24.95 1 33.8 88 -0.7 30.8
10:50 1016 30 845 24.95 1.1 34 88 -0.6 30.9
10:55 1016 30 845 24.95 1.2 34.2 88 -0.6 31
11:00 1016 30 845 24.95 1.2 34.2 89 -0.5 31.1
11:05 1016 30 845 24.95 1.2 34.1 89 -0.5 31.2
11:10 1016 30 845 24.95 1.2 34.1 89 -0.5 31.1
11:15 1016 30 845 24.95 1.3 34.3 89 -0.4 31.3
11:20 1016 30 845 24.95 1.3 34.4 88 -0.4 31.3
11:25 1015 29.97 845 24.95 1.3 34.3 89 -0.3 31.4
11:30 1015 29.97 845 24.95 1.5 34.8 88 -0.3 31.5
11:35 1015 29.97 845 24.95 1.6 34.9 87 -0.3 31.5
11:40 1015 29.97 845 24.95 1.5 34.7 89 -0.2 31.6
11:45 1015 29.97 844 24.92 1.6 34.8 88 -0.2 31.7
11:50 1015 29.97 844 24.92 1.7 35.1 88 -0.1 31.8
11:55 1015 29.97 844 24.92 1.5 34.7 89 -0.1 31.9
12:00 1015 29.97 844 24.92 1.3 34.4 90 -0.1 31.7
12:05 1015 29.97 844 24.92 1.5 34.7 89 -0.1 31.8
12:10 1015 29.97 844 24.92 1.3 34.3 90 -0.1 31.8
12:15 1015 29.97 844 24.92 1.3 34.3 90 -0.2 31.7
12:20 1015 29.97 844 24.92 1.4 34.5 90 -0 32
12:25 1015 29.97 844 24.92 1.6 35 89 0.1 32.1
12:30 1014 29.94 844 24.92 1.9 35.4 88 0.1 32.1
12:35 1014 29.94 844 24.92 1.9 35.5 87 0 32
12:40 1014 29.94 843 24.89 2 35.6 87 0.1 32.1
12:45 1014 29.94 843 24.89 2 35.6 87 0.1 32.1
12:50 1014 29.94 843 24.89 2 35.5 86 -0.1 31.8
12:55 1014 29.94 843 24.89 2 35.7 86 -0 31.9
13:00 1014 29.94 843 24.89 2 35.6 86 -0.1 31.9
13:05 1014 29.94 843 24.89 2.3 36.1 84 -0.2 31.6
13:10 1014 29.94 843 24.89 2.6 36.6 82 -0.1 31.7
13:15 1014 29.94 843 24.89 2.8 37.1 80 -0.2 31.6
13:20 1014 29.94 843 24.89 3 37.4 81 0.1 32.2
13:25 1014 29.94 843 24.89 2.9 37.3 81 0 32.1
13:30 1014 29.94 843 24.89 2.7 36.9 82 -0 31.9
13:35 1013 29.91 843 24.89 2.8 37.1 81 -0.1 31.8
13:40 1013 29.91 843 24.89 2.7 36.8 82 -0.1 31.8
13:45 1013 29.91 843 24.89 2.6 36.7 82 -0.2 31.6
13:50 1013 29.91 843 24.89 2.6 36.7 82 -0.2 31.7
13:55 1013 29.91 843 24.89 2.6 36.7 82 -0.1 31.8
14:00 1013 29.91 842 24.86 2.6 36.6 82 -0.3 31.5
14:05 1013 29.91 842 24.86 2.7 36.8 82 -0.1 31.9
14:10 1013 29.91 842 24.86 2.9 37.2 81 -0.1 31.9
14:15 1013 29.91 842 24.86 3 37.4 81 0 32.1
14:20 1013 29.91 842 24.86 3.1 37.6 81 0.2 32.3
14:25 1013 29.91 842 24.86 3.2 37.7 80 0.2 32.3
14:30 1013 29.91 842 24.86 3.3 37.9 80 0.2 32.4
14:35 1013 29.91 842 24.86 3.2 37.8 82 0.4 32.7
14:40 1013 29.91 842 24.86 3.3 37.9 83 0.7 33.2
14:45 1013 29.91 842 24.86 3.2 37.7 84 0.7 33.3
14:50 1013 29.91 842 24.86 2.8 37.1 87 0.8 33.5
14:55 1013 29.91 842 24.86 2 35.7 90 0.5 32.9
15:00 1013 29.91 842 24.86 1.6 34.9 91 0.3 32.6
15:05 1013 29.91 842 24.86 1.5 34.7 92 0.4 32.7
15:10 1013 29.91 842 24.86 1.6 34.8 92 0.5 32.9
15:15 1013 29.91 842 24.86 1.7 35 92 0.5 32.8
15:20 1013 29.91 842 24.86 1.8 35.2 91 0.5 32.9
15:25 1013 29.91 842 24.86 1.9 35.5 91 0.6 33
15:30 1012 29.88 842 24.86 2.1 35.7 90 0.5 32.9
15:35 1012 29.88 842 24.86 2 35.6 91 0.6 33.1
15:40 1012 29.88 842 24.86 1.9 35.5 90 0.4 32.7
15:45 1012 29.88 842 24.86 1.9 35.4 90 0.4 32.8
15:50 1012 29.88 842 24.86 2 35.7 90 0.6 33
15:55 1012 29.88 842 24.86 1.9 35.5 90 0.5 32.9
16:00 1012 29.88 842 24.86 1.9 35.5 90 0.5 32.9
16:05 1012 29.88 842 24.86 1.9 35.4 91 0.6 33.1
16:10 1012 29.88 842 24.86 1.8 35.3 92 0.6 33.1
16:15 1012 29.88 842 24.86 1.7 35.1 92 0.6 33
16:20 1012 29.88 842 24.86 1.8 35.3 92 0.7 33.2
16:25 1012 29.88 841 24.83 1.9 35.4 92 0.7 33.2
16:30 1012 29.88 841 24.83 1.9 35.4 92 0.7 33.3
16:35 1012 29.88 841 24.83 1.8 35.3 92 0.7 33.2
16:40 1012 29.88 841 24.83 1.8 35.2 93 0.7 33.3
16:45 1012 29.88 841 24.83 1.8 35.3 93 0.7 33.3
16:50 1012 29.88 841 24.83 2 35.5 92 0.8 33.4
16:55 1012 29.88 841 24.83 2 35.7 92 0.8 33.5
17:00 1012 29.88 841 24.83 2 35.6 92 0.8 33.5
17:05 1012 29.88 841 24.83 1.8 35.2 93 0.8 33.4
17:10 1012 29.88 841 24.83 1.4 34.5 95 0.6 33.1
17:15 1012 29.88 841 24.83 1.2 34.2 95 0.5 33
17:20 1012 29.88 841 24.83 1.1 33.9 96 0.5 32.8
17:25 1012 29.88 841 24.83 1.1 33.9 96 0.5 32.9
17:30 1012 29.88 841 24.83 1.1 34 96 0.5 33
17:35 1012 29.88 841 24.83 1.2 34.1 96 0.6 33
17:40 1012 29.88 841 24.83 1.2 34.2 96 0.6 33.1
17:45 1012 29.88 841 24.83 1.4 34.5 95 0.6 33.1
17:50 1012 29.88 841 24.83 1.4 34.5 95 0.6 33.1
17:55 1012 29.88 841 24.83 1.6 34.9 92 0.4 32.8
18:00 1012 29.88 841 24.83 2 35.5 89 0.4 32.7
18:05 1012 29.88 841 24.83 2.1 35.7 89 0.4 32.7
18:10 1012 29.88 841 24.83 2.2 36 87 0.3 32.5
18:15 1012 29.88 841 24.83 2.2 36 87 0.2 32.4
18:20 1012 29.88 841 24.83 2.2 36 86 0.2 32.3
18:25 1012 29.88 841 24.83 2.2 35.9 86 0.1 32.2
18:30 1012 29.88 841 24.83 2.2 35.9 86 0.1 32.1
18:35 1012 29.88 841 24.83 2.2 36 86 0.1 32.2
18:40 1012 29.88 841 24.83 2.3 36.2 86 0.2 32.4
18:45 1012 29.88 841 24.83 2.3 36.2 86 0.2 32.3
18:50 1012 29.88 841 24.83 2.3 36.2 86 0.2 32.3
18:55 1012 29.88 841 24.83 2.4 36.3 85 0.1 32.2
19:00 1012 29.88 841 24.83 2.4 36.4 84 0.1 32.1
19:05 1012 29.88 841 24.83 2.6 36.6 83 0 32
19:10 1012 29.88 841 24.83 2.6 36.7 83 0.1 32.1
19:15 1012 29.88 841 24.83 2.6 36.6 84 0.1 32.1
19:20 1012 29.88 841 24.83 2.4 36.4 84 -0 32
19:25 1012 29.88 841 24.83 2.4 36.4 84 -0 31.9
19:30 1012 29.88 841 24.83 2.4 36.4 83 -0.1 31.8
19:35 1012 29.88 841 24.83 2.5 36.6 82 -0.3 31.4
19:40 1012 29.88 841 24.83 2.8 37 81 -0.2 31.6
19:45 1012 29.88 841 24.83 3 37.3 79 -0.3 31.4
19:50 1012 29.88 841 24.83 3 37.4 78 -0.5 31.1
19:55 1012 29.88 841 24.83 3 37.3 78 -0.5 31.1
20:00 1012 29.88 841 24.83 3 37.3 77 -0.6 30.9
20:05 1012 29.88 841 24.83 3 37.4 77 -0.7 30.8
20:10 1012 29.88 841 24.83 3 37.4 77 -0.6 30.9
20:15 1012 29.88 841 24.83 3 37.4 76 -0.8 30.5
20:20 1011 29.85 841 24.83 3.2 37.7 75 -0.9 30.4
20:25 1011 29.85 841 24.83 3.1 37.7 77 -0.5 31.1
20:30 1011 29.85 840 24.81 3 37.4 76 -0.8 30.6
20:35 1011 29.85 840 24.81 2.9 37.3 77 -0.7 30.7
20:40 1011 29.85 840 24.81 3 37.3 77 -0.6 30.9
20:45 1011 29.85 840 24.81 2.9 37.3 78 -0.6 30.9
20:50 1011 29.85 840 24.81 2.9 37.2 79 -0.4 31.2
20:55 1011 29.85 841 24.83 2.8 37 78 -0.6 30.9
21:00 1011 29.85 840 24.81 2.8 37 78 -0.7 30.7
21:05 1011 29.85 840 24.81 2.9 37.1 75 -1.1 30
21:10 1011 29.85 841 24.83 3 37.5 74 -1.2 29.8
21:15 1011 29.85 841 24.83 3.2 37.7 72 -1.4 29.5
21:20 1012 29.88 841 24.83 3.3 37.9 71 -1.4 29.5
21:25 1012 29.88 841 24.83 3.4 38.1 71 -1.4 29.4
21:30 1012 29.88 841 24.83 3.4 38 72 -1.3 29.7
21:35 1012 29.88 841 24.83 3.2 37.8 72 -1.3 29.7
21:40 1012 29.88 841 24.83 3.1 37.6 72 -1.5 29.4
21:45 1012 29.88 841 24.83 3 37.5 73 -1.3 29.6
21:50 1012 29.88 841 24.83 3 37.4 73 -1.3 29.7
21:55 1012 29.88 841 24.83 2.9 37.3 74 -1.3 29.7
22:00 1012 29.88 841 24.83 2.8 37.1 74 -1.4 29.4
22:05 1012 29.88 841 24.83 2.8 37.1 73 -1.5 29.3
22:10 1012 29.88 841 24.83 2.8 37 73 -1.6 29.1
22:15 1012 29.88 841 24.83 2.8 37 73 -1.7 29
22:20 1012 29.88 841 24.83 2.7 36.9 73 -1.7 29
22:25 1012 29.88 841 24.83 2.7 36.8 74 -1.6 29.2
22:30 1012 29.88 841 24.83 2.7 36.8 73 -1.6 29.1
22:35 1012 29.88 841 24.83 2.6 36.7 74 -1.5 29.2
22:40 1012 29.88 841 24.83 2.6 36.8 74 -1.6 29.2
22:45 1012 29.88 841 24.83 2.7 36.8 73 -1.8 28.8
22:50 1012 29.88 841 24.83 2.8 37.1 73 -1.6 29.1
22:55 1012 29.88 841 24.83 3 37.4 72 -1.5 29.3
23:00 1012 29.88 841 24.83 3 37.4 76 -0.9 30.4
23:05 1012 29.88 841 24.83 2.7 36.9 79 -0.5 31.1
23:10 1012 29.88 841 24.83 2.3 36.1 83 -0.4 31.3
23:15 1012 29.88 841 24.83 2 35.6 85 -0.3 31.5
23:20 1012 29.88 841 24.83 1.8 35.3 86 -0.3 31.4
23:25 1012 29.88 841 24.83 1.8 35.2 86 -0.3 31.5
23:30 1012 29.88 841 24.83 1.8 35.2 86 -0.3 31.5
23:35 1012 29.88 841 24.83 1.7 35 88 -0.1 31.8
23:40 1012 29.88 841 24.83 1.1 34.1 92 -0.1 31.9
23:45 1012 29.88 841 24.83 0.6 33 94 -0.3 31.5
23:50 1012 29.88 841 24.83 0.3 32.5 96 -0.3 31.4
23:55 1012 29.88 841 24.83 0.2 32.4 97 -0.3 31.5
24:00 1012 29.88 841 24.83 0.2 32.3 97 -0.3 31.5